Time;durP1;ratioP1;P1;durP2;ratioP2;P2;SDS_P1;SDS_P2;PMS_P1;PMS_P2;Temp;Humidity;BMP_temperature;BMP_pressure;BME280_temperature;BME280_humidity;BME280_pressure;Samples;Min_cycle;Max_cycle;Signal;HPM_P1;HPM_P2
2024/04/07 00:02:23;;;;;;;;;;;;;;;;;;5094756;28;19915;-71
2024/04/07 00:04:49;;;;;;;;;;;;;;;;;;5094461;28;20054;-70
2024/04/07 00:07:15;;;;;;;;;;;;;;;;;;5094565;28;19952;-70
2024/04/07 00:09:41;;;;;;;;;;;;;;;;;;5076413;28;19966;-71
2024/04/07 00:12:10;;;;;;;;;;;;;;;;;;5075917;28;19908;-71
2024/04/07 00:14:36;;;;;;;;;;;;;;;;;;5094688;28;19947;-70
2024/04/07 00:17:03;;;;;;;;;;;;;;;;;;5094819;28;20307;-70
2024/04/07 00:19:29;;;;;;;;;;;;;;;;;;5094115;28;19904;-70
2024/04/07 00:21:55;;;;;;;;;;;;;;;;;;5094505;28;19912;-71
2024/04/07 00:24:21;;;;;;;;;;;;;;;;;;5076156;28;19904;-71
2024/04/07 00:26:47;;;;;;;;;;;;;;;;;;5093842;28;19923;-71
2024/04/07 00:29:13;;;;;;;;;;;;;;;;;;5094319;28;19912;-71
2024/04/07 00:31:39;;;;;;;;;;;;;;;;;;5094653;28;20386;-70
2024/04/07 00:34:05;;;;;;;;;;;;;;;;;;5093818;28;20311;-71
2024/04/07 00:36:31;;;;;;;;;;;;;;;;;;5076013;28;19915;-70
2024/04/07 00:38:57;;;;;;;;;;;;;;;;;;5094207;28;20279;-71
2024/04/07 00:41:23;;;;;;;;;;;;;;;;;;5093468;28;19912;-71
2024/04/07 00:43:49;;;;;;;;;;;;;;;;;;5094034;28;19962;-71
2024/04/07 00:46:15;;;;;;;;;;;;;;;;;;5093928;28;19916;-71
2024/04/07 00:48:41;;;;;;;;;;;;;;;;;;5093679;28;20279;-70
2024/04/07 00:51:07;;;;;;;;;;;;;;;;;;5093962;28;19908;-70
2024/04/07 00:53:33;;;;;;;;;;;;;;;;;;5093932;28;19913;-71
2024/04/07 00:55:59;;;;;;;;;;;;;;;;;;5075367;28;19909;-71
2024/04/07 00:58:25;;;;;;;;;;;;;;;;;;5093879;28;19915;-71
2024/04/07 01:00:50;;;;;;;;;;;;;;;;;;5093924;28;20041;-71
2024/04/07 01:03:16;;;;;;;;;;;;;;;;;;5093421;28;20275;-71
2024/04/07 01:05:42;;;;;;;;;;;;;;;;;;5093643;28;20019;-71
2024/04/07 01:08:08;;;;;;;;;;;;;;;;;;5093549;28;20461;-71
2024/04/07 01:10:34;;;;;;;;;;;;;;;;;;5094166;28;20340;-71
2024/04/07 01:13:00;;;;;;;;;;;;;;;;;;5093796;28;20294;-71
2024/04/07 01:15:26;;;;;;;;;;;;;;;;;;5093313;28;19908;-71
2024/04/07 01:17:52;;;;;;;;;;;;;;;;;;5093708;28;19951;-71
2024/04/07 01:20:18;;;;;;;;;;;;;;;;;;5093959;28;20396;-71
2024/04/07 01:22:44;;;;;;;;;;;;;;;;;;5093120;28;19934;-71
2024/04/07 01:25:11;;;;;;;;;;;;;;;;;;5093610;28;19916;-71
2024/04/07 01:27:37;;;;;;;;;;;;;;;;;;5093640;28;19908;-71
2024/04/07 01:30:03;;;;;;;;;;;;;;;;;;5093184;28;20363;-71
2024/04/07 01:32:29;;;;;;;;;;;;;;;;;;5093598;28;19908;-71
2024/04/07 01:34:55;;;;;;;;;;;;;;;;;;5075421;28;19977;-71
2024/04/07 01:37:21;;;;;;;;;;;;;;;;;;5093103;28;19915;-71
2024/04/07 01:39:47;;;;;;;;;;;;;;;;;;5093572;28;19908;-71
2024/04/07 01:42:13;;;;;;;;;;;;;;;;;;5075301;28;19961;-71
2024/04/07 01:44:39;;;;;;;;;;;;;;;;;;5093090;28;19908;-71
2024/04/07 01:47:05;;;;;;;;;;;;;;;;;;5093370;28;19912;-71
2024/04/07 01:49:31;;;;;;;;;;;;;;;;;;5093377;28;19996;-71
2024/04/07 01:51:57;;;;;;;;;;;;;;;;;;5094193;28;19915;-71
2024/04/07 01:54:22;;;;;;;;;;;;;;;;;;5097154;28;19912;-71
2024/04/07 01:56:48;;;;;;;;;;;;;;;;;;5097114;28;19999;-71
2024/04/07 01:59:14;;;;;;;;;;;;;;;;;;5096743;28;19908;-71
2024/04/07 02:01:42;;;;;;;;;;;;;;;;;;5078854;28;19946;-72
2024/04/07 02:04:08;;;;;;;;;;;;;;;;;;5097078;28;19999;-71
2024/04/07 02:06:34;;;;;;;;;;;;;;;;;;5096977;28;20004;-71
2024/04/07 02:09:00;;;;;;;;;;;;;;;;;;5096933;28;19908;-71
2024/04/07 02:11:26;;;;;;;;;;;;;;;;;;5096703;28;19909;-71
2024/04/07 02:13:51;;;;;;;;;;;;;;;;;;5097107;28;19947;-71
2024/04/07 02:16:17;;;;;;;;;;;;;;;;;;5097028;28;19915;-71
2024/04/07 02:18:43;;;;;;;;;;;;;;;;;;5096386;28;19912;-71
2024/04/07 02:21:09;;;;;;;;;;;;;;;;;;5096812;28;20368;-71
2024/04/07 02:23:35;;;;;;;;;;;;;;;;;;5096692;28;20318;-71
2024/04/07 02:26:02;;;;;;;;;;;;;;;;;;5096120;28;20273;-71
2024/04/07 02:28:28;;;;;;;;;;;;;;;;;;5096590;28;20299;-71
2024/04/07 02:30:54;;;;;;;;;;;;;;;;;;5097044;28;19908;-71
2024/04/07 02:33:20;;;;;;;;;;;;;;;;;;5077907;28;20434;-71
2024/04/07 02:35:46;;;;;;;;;;;;;;;;;;5096357;28;20283;-71
2024/04/07 02:38:12;;;;;;;;;;;;;;;;;;5096330;28;19908;-71
2024/04/07 02:40:38;;;;;;;;;;;;;;;;;;5095941;28;19914;-71
2024/04/07 02:43:04;;;;;;;;;;;;;;;;;;5096320;28;19947;-71
2024/04/07 02:48:14;;;;;;;;;;;;;;;;;;5095929;28;20004;-73
2024/04/07 02:50:40;;;;;;;;;;;;;;;;;;5096164;28;19956;-70
2024/04/07 02:53:07;;;;;;;;;;;;;;;;;;5096164;28;19908;-71
2024/04/07 02:55:33;;;;;;;;;;;;;;;;;;5077565;28;20371;-71
2024/04/07 02:57:59;;;;;;;;;;;;;;;;;;5096170;28;19908;-71
2024/04/07 03:00:26;;;;;;;;;;;;;;;;;;5096037;28;19915;-71
2024/04/07 03:02:52;;;;;;;;;;;;;;;;;;5095551;28;19968;-71
2024/04/07 03:05:18;;;;;;;;;;;;;;;;;;5095668;28;20392;-70
2024/04/07 03:07:46;;;;;;;;;;;;;;;;;;5095400;28;20295;-71
2024/04/07 03:10:12;;;;;;;;;;;;;;;;;;5096122;28;19915;-71
2024/04/07 03:12:38;;;;;;;;;;;;;;;;;;5095744;28;20314;-71
2024/04/07 03:15:03;;;;;;;;;;;;;;;;;;5077168;28;20314;-71
2024/04/07 03:17:30;;;;;;;;;;;;;;;;;;5095861;28;19983;-71
2024/04/07 03:19:55;;;;;;;;;;;;;;;;;;5095642;28;19909;-71
2024/04/07 03:22:21;;;;;;;;;;;;;;;;;;5095296;28;19914;-71
2024/04/07 03:24:48;;;;;;;;;;;;;;;;;;5095433;28;19915;-71
2024/04/07 03:27:14;;;;;;;;;;;;;;;;;;5095421;28;19950;-71
2024/04/07 03:29:40;;;;;;;;;;;;;;;;;;5095116;28;19908;-71
2024/04/07 03:32:06;;;;;;;;;;;;;;;;;;5095510;28;19908;-71
2024/04/07 03:34:32;;;;;;;;;;;;;;;;;;5095326;28;20400;-71
2024/04/07 03:36:58;;;;;;;;;;;;;;;;;;5094896;28;20398;-71
2024/04/07 03:39:24;;;;;;;;;;;;;;;;;;5077039;28;20276;-71
2024/04/07 03:41:51;;;;;;;;;;;;;;;;;;5095133;28;19908;-71
2024/04/07 03:44:18;;;;;;;;;;;;;;;;;;5094754;28;19960;-72
2024/04/07 03:46:44;;;;;;;;;;;;;;;;;;5094985;28;19923;-72
2024/04/07 03:49:10;;;;;;;;;;;;;;;;;;5095084;28;19908;-71
2024/04/07 03:51:36;;;;;;;;;;;;;;;;;;5094617;28;19908;-71
2024/04/07 03:54:03;;;;;;;;;;;;;;;;;;5094980;28;20123;-71
2024/04/07 03:56:28;;;;;;;;;;;;;;;;;;5094883;28;19953;-71
2024/04/07 03:58:54;;;;;;;;;;;;;;;;;;5094442;28;19908;-71
2024/04/07 04:01:21;;;;;;;;;;;;;;;;;;5095076;28;19914;-71
2024/04/07 04:03:47;;;;;;;;;;;;;;;;;;5094816;28;19944;-71
2024/04/07 04:06:13;;;;;;;;;;;;;;;;;;5094156;28;19975;-70
2024/04/07 04:08:39;;;;;;;;;;;;;;;;;;5094702;28;19915;-71
2024/04/07 04:11:05;;;;;;;;;;;;;;;;;;5076032;28;19908;-71
2024/04/07 04:13:31;;;;;;;;;;;;;;;;;;5094838;28;19916;-71
2024/04/07 04:15:56;;;;;;;;;;;;;;;;;;5075892;28;19908;-71
2024/04/07 04:18:22;;;;;;;;;;;;;;;;;;5094127;28;20007;-72
2024/04/07 04:20:48;;;;;;;;;;;;;;;;;;5094627;28;19912;-71
2024/04/07 04:23:14;;;;;;;;;;;;;;;;;;5094440;28;19915;-71
2024/04/07 04:25:40;;;;;;;;;;;;;;;;;;5093961;28;19916;-71
2024/04/07 04:28:06;;;;;;;;;;;;;;;;;;5076234;28;19908;-72
2024/04/07 04:30:33;;;;;;;;;;;;;;;;;;5076116;28;20403;-71
2024/04/07 04:32:59;;;;;;;;;;;;;;;;;;5094093;28;19932;-71
2024/04/07 04:35:25;;;;;;;;;;;;;;;;;;5094441;28;19909;-71
2024/04/07 04:37:51;;;;;;;;;;;;;;;;;;5094092;28;19912;-71
2024/04/07 04:40:17;;;;;;;;;;;;;;;;;;5093859;28;19934;-71
2024/04/07 04:42:43;;;;;;;;;;;;;;;;;;5076023;28;19962;-71
2024/04/07 04:45:09;;;;;;;;;;;;;;;;;;5094172;28;20412;-71
2024/04/07 04:47:35;;;;;;;;;;;;;;;;;;5093665;28;19912;-71
2024/04/07 04:50:01;;;;;;;;;;;;;;;;;;5094003;28;19912;-71
2024/04/07 04:52:26;;;;;;;;;;;;;;;;;;5094036;28;19916;-71
2024/04/07 04:54:52;;;;;;;;;;;;;;;;;;5093579;28;20321;-71
2024/04/07 04:57:18;;;;;;;;;;;;;;;;;;5093892;28;20286;-71
2024/04/07 04:59:44;;;;;;;;;;;;;;;;;;5093932;28;19930;-70
2024/04/07 05:02:10;;;;;;;;;;;;;;;;;;5093481;28;19915;-71
2024/04/07 05:04:36;;;;;;;;;;;;;;;;;;5093678;28;19908;-70
2024/04/07 05:07:04;;;;;;;;;;;;;;;;;;5093796;28;19966;-70
2024/04/07 05:11:58;;;;;;;;;;;;;;;;;;5091665;27;19913;-70
2024/04/07 05:14:24;;;;;;;;;;;;;;;;;;5089562;28;20015;-70
2024/04/07 05:18:08;;;;;;;;;;;;;;;;;;5091508;27;19942;-70
2024/04/07 05:20:33;;;;;;;;;;;;;;;;;;5091316;28;19917;-71
2024/04/07 05:23:36;;;;;;;;;;;;;;;;;;5090922;27;20287;-70
2024/04/07 05:26:02;;;;;;;;;;;;;;;;;;5091169;28;19974;-70
2024/04/07 05:30:55;;;;;;;;;;;;;;;;;;5173661;27;20010;-70
2024/04/07 05:33:21;;;;;;;;;;;;;;;;;;5173598;27;19911;-70
2024/04/07 05:38:56;;;;;;;;;;;;;;;;;;5091588;28;19939;-70
2024/04/07 05:41:22;;;;;;;;;;;;;;;;;;5091381;28;20431;-70
2024/04/07 05:45:08;;;;;;;;;;;;;;;;;;5091585;27;19923;-70
2024/04/07 05:47:33;;;;;;;;;;;;;;;;;;5091240;28;20427;-71
2024/04/07 05:49:59;;;;;;;;;;;;;;;;;;5089474;28;19961;-70
2024/04/07 05:54:29;;;;;;;;;;;;;;;;;;5091518;27;19916;-70
2024/04/07 05:56:54;;;;;;;;;;;;;;;;;;5090857;28;19981;-72
2024/04/07 06:00:12;;;;;;;;;;;;;;;;;;5132369;27;19912;-72
2024/04/07 06:02:38;;;;;;;;;;;;;;;;;;5132092;27;19998;-72
2024/04/07 06:05:04;;;;;;;;;;;;;;;;;;5130331;28;19966;-72
2024/04/07 06:10:31;;;;;;;;;;;;;;;;;;5091906;27;19923;-72
2024/04/07 06:12:57;;;;;;;;;;;;;;;;;;5091253;28;19912;-72
2024/04/07 06:15:23;;;;;;;;;;;;;;;;;;5091197;28;19916;-72
2024/04/07 06:17:49;;;;;;;;;;;;;;;;;;5090783;28;19932;-72
2024/04/07 06:20:15;;;;;;;;;;;;;;;;;;5091582;28;20432;-73
2024/04/07 06:23:30;;;;;;;;;;;;;;;;;;5091850;27;19916;-73
2024/04/07 06:25:56;;;;;;;;;;;;;;;;;;5090846;28;20343;-72
2024/04/07 06:31:40;;;;;;;;;;;;;;;;;;5091726;27;19920;-72
2024/04/07 06:35:06;;;;;;;;;;;;;;;;;;5092081;27;19916;-72
2024/04/07 06:37:32;;;;;;;;;;;;;;;;;;5091296;28;20030;-72
2024/04/07 06:39:58;;;;;;;;;;;;;;;;;;5089512;28;19912;-71
2024/04/07 06:42:24;;;;;;;;;;;;;;;;;;5091271;28;19922;-71
2024/04/07 06:44:50;;;;;;;;;;;;;;;;;;5091145;28;19998;-72
2024/04/07 06:47:16;;;;;;;;;;;;;;;;;;5089453;28;20355;-72
2024/04/07 06:49:42;;;;;;;;;;;;;;;;;;5091277;28;19965;-72
2024/04/07 06:52:08;;;;;;;;;;;;;;;;;;5091038;28;19909;-72
2024/04/07 06:54:49;;;;;;;;;;;;;;;;;;5091168;27;19916;-72
2024/04/07 06:57:15;;;;;;;;;;;;;;;;;;5091231;28;19999;-71
2024/04/07 06:59:41;;;;;;;;;;;;;;;;;;5091408;28;19913;-73
2024/04/07 07:02:07;;;;;;;;;;;;;;;;;;5090822;28;19908;-73
2024/04/07 07:04:45;;;;;;;;;;;;;;;;;;5092136;27;20220;-72
2024/04/07 07:07:11;;;;;;;;;;;;;;;;;;5090851;28;20007;-72
2024/04/07 07:11:29;;;;;;;;;;;;;;;;;;5091854;27;19913;-72
2024/04/07 07:13:55;;;;;;;;;;;;;;;;;;5091064;28;19995;-72
2024/04/07 07:16:21;;;;;;;;;;;;;;;;;;5089950;28;19908;-72
2024/04/07 07:18:47;;;;;;;;;;;;;;;;;;5089662;28;19931;-72
2024/04/07 07:21:13;;;;;;;;;;;;;;;;;;5090555;28;19962;-72
2024/04/07 07:23:39;;;;;;;;;;;;;;;;;;5091069;28;19943;-72
2024/04/07 07:26:05;;;;;;;;;;;;;;;;;;5091273;28;19908;-72
2024/04/07 07:30:21;;;;;;;;;;;;;;;;;;5091619;27;19916;-72
2024/04/07 07:32:47;;;;;;;;;;;;;;;;;;5091350;28;19955;-72
2024/04/07 07:35:13;;;;;;;;;;;;;;;;;;5089413;28;19916;-71
2024/04/07 07:37:38;;;;;;;;;;;;;;;;;;5091212;28;19999;-73
2024/04/07 07:41:07;;;;;;;;;;;;;;;;;;5111815;27;19923;-73
2024/04/07 07:43:32;;;;;;;;;;;;;;;;;;5111230;28;19999;-74
2024/04/07 07:45:58;;;;;;;;;;;;;;;;;;5111555;28;19961;-73
2024/04/07 07:48:24;;;;;;;;;;;;;;;;;;5110285;28;19908;-72
2024/04/07 07:50:50;;;;;;;;;;;;;;;;;;5109918;28;19908;-73
2024/04/07 07:53:16;;;;;;;;;;;;;;;;;;5111686;28;20417;-71
2024/04/07 07:56:19;;;;;;;;;;;;;;;;;;5112004;27;20344;-71
2024/04/07 07:59:30;;;;;;;;;;;;;;;;;;5112321;27;19922;-71
2024/04/07 08:02:28;;;;;;;;;;;;;;;;;;5091536;27;19917;-72
2024/04/07 08:07:26;;;;;;;;;;;;;;;;;;5111518;27;20383;-71
2024/04/07 08:11:04;;;;;;;;;;;;;;;;;;5091169;27;19917;-70
2024/04/07 08:14:12;;;;;;;;;;;;;;;;;;5111875;27;19916;-71
2024/04/07 08:16:38;;;;;;;;;;;;;;;;;;5111642;28;19999;-70
2024/04/07 08:19:03;;;;;;;;;;;;;;;;;;5110976;28;19908;-71
2024/04/07 08:21:29;;;;;;;;;;;;;;;;;;5111731;28;20356;-71
2024/04/07 08:23:55;;;;;;;;;;;;;;;;;;5111782;28;20364;-72
2024/04/07 08:26:21;;;;;;;;;;;;;;;;;;5109636;28;20325;-72
2024/04/07 08:28:47;;;;;;;;;;;;;;;;;;5111357;28;19915;-71
2024/04/07 08:31:14;;;;;;;;;;;;;;;;;;5110985;28;19908;-72
2024/04/07 08:35:06;;;;;;;;;;;;;;;;;;5091949;27;19916;-72
2024/04/07 08:37:32;;;;;;;;;;;;;;;;;;5091185;28;20003;-71
2024/04/07 08:39:57;;;;;;;;;;;;;;;;;;5090775;28;19916;-73
2024/04/07 08:44:26;;;;;;;;;;;;;;;;;;5092057;27;19923;-72
2024/04/07 08:49:22;;;;;;;;;;;;;;;;;;5091337;27;20388;-72
2024/04/07 08:51:48;;;;;;;;;;;;;;;;;;5091228;28;20010;-73
2024/04/07 08:55:11;;;;;;;;;;;;;;;;;;5091426;27;19916;-71
2024/04/07 08:57:37;;;;;;;;;;;;;;;;;;5091215;28;20003;-72
2024/04/07 09:00:05;;;;;;;;;;;;;;;;;;5090785;28;19909;-72
2024/04/07 09:02:31;;;;;;;;;;;;;;;;;;5091154;28;19909;-72
2024/04/07 09:04:57;;;;;;;;;;;;;;;;;;5091084;28;19919;-70
2024/04/07 09:07:23;;;;;;;;;;;;;;;;;;5090697;28;19975;-72
2024/04/07 09:11:53;;;;;;;;;;;;;;;;;;5153159;27;20010;-72
2024/04/07 09:15:22;;;;;;;;;;;;;;;;;;5091019;28;19912;-72
2024/04/07 09:17:48;;;;;;;;;;;;;;;;;;5091320;28;19918;-72
2024/04/07 09:20:14;;;;;;;;;;;;;;;;;;5091689;28;19908;-73
2024/04/07 09:22:40;;;;;;;;;;;;;;;;;;5090808;28;19966;-72
2024/04/07 09:25:05;;;;;;;;;;;;;;;;;;5091179;28;20365;-72
2024/04/07 09:27:31;;;;;;;;;;;;;;;;;;5090740;28;20394;-72
2024/04/07 09:29:57;;;;;;;;;;;;;;;;;;5091017;28;20372;-72
2024/04/07 09:32:24;;;;;;;;;;;;;;;;;;5090922;28;19908;-72
2024/04/07 09:36:24;;;;;;;;;;;;;;;;;;5111369;27;20398;-71
2024/04/07 09:40:17;;;;;;;;;;;;;;;;;;5111519;27;19912;-72
2024/04/07 09:44:04;;;;;;;;;;;;;;;;;;5091396;27;19927;-72
2024/04/07 09:46:30;;;;;;;;;;;;;;;;;;5091187;28;19950;-72
2024/04/07 09:48:56;;;;;;;;;;;;;;;;;;5090728;28;19940;-70
2024/04/07 09:51:22;;;;;;;;;;;;;;;;;;5091203;28;19966;-72
2024/04/07 09:53:48;;;;;;;;;;;;;;;;;;5089612;28;19909;-72
2024/04/07 09:59:02;;;;;;;;;;;;;;;;;;5091183;27;19917;-72
2024/04/07 10:01:28;;;;;;;;;;;;;;;;;;5091144;28;20349;-73
2024/04/07 10:03:54;;;;;;;;;;;;;;;;;;5090774;28;19908;-72
2024/04/07 10:06:20;;;;;;;;;;;;;;;;;;5091076;28;19940;-73
2024/04/07 10:08:46;;;;;;;;;;;;;;;;;;5091110;28;19909;-73
2024/04/07 10:11:53;;;;;;;;;;;;;;;;;;5091042;27;19926;-72
2024/04/07 10:14:20;;;;;;;;;;;;;;;;;;5092009;28;19912;-72
2024/04/07 10:18:48;;;;;;;;;;;;;;;;;;5111782;27;19922;-71
2024/04/07 10:21:14;;;;;;;;;;;;;;;;;;5111888;28;19994;-72
2024/04/07 10:23:40;;;;;;;;;;;;;;;;;;5111516;28;19950;-72
2024/04/07 10:28:25;;;;;;;;;;;;;;;;;;5111728;27;20302;-71
2024/04/07 10:30:51;;;;;;;;;;;;;;;;;;5111467;28;20007;-71
2024/04/07 10:33:17;;;;;;;;;;;;;;;;;;5111545;28;19931;-71
2024/04/07 10:35:43;;;;;;;;;;;;;;;;;;5111725;28;19954;-71
2024/04/07 10:38:09;;;;;;;;;;;;;;;;;;5109773;28;19908;-71
2024/04/07 10:42:36;;;;;;;;;;;;;;;;;;5112067;27;19918;-71
2024/04/07 10:45:02;;;;;;;;;;;;;;;;;;5111045;28;19998;-71
2024/04/07 10:47:28;;;;;;;;;;;;;;;;;;5111447;28;20424;-72
2024/04/07 10:49:53;;;;;;;;;;;;;;;;;;5111563;28;20316;-71
2024/04/07 10:52:19;;;;;;;;;;;;;;;;;;5111049;28;19931;-73
2024/04/07 10:56:51;;;;;;;;;;;;;;;;;;5112025;27;19922;-71
2024/04/07 10:59:17;;;;;;;;;;;;;;;;;;5111102;28;19943;-72
2024/04/07 11:01:43;;;;;;;;;;;;;;;;;;5111523;28;19974;-72
2024/04/07 11:04:08;;;;;;;;;;;;;;;;;;5111521;28;20008;-72
2024/04/07 11:06:35;;;;;;;;;;;;;;;;;;5111062;28;19914;-72
2024/04/07 11:09:01;;;;;;;;;;;;;;;;;;5111590;28;19953;-71
2024/04/07 11:11:27;;;;;;;;;;;;;;;;;;5111391;28;19912;-71
2024/04/07 11:13:53;;;;;;;;;;;;;;;;;;5110875;28;19908;-71
2024/04/07 11:16:19;;;;;;;;;;;;;;;;;;5111299;28;19965;-71
2024/04/07 11:18:45;;;;;;;;;;;;;;;;;;5109939;28;19915;-71
2024/04/07 11:21:11;;;;;;;;;;;;;;;;;;5110717;28;19916;-72
2024/04/07 11:23:37;;;;;;;;;;;;;;;;;;5109863;28;19912;-72
2024/04/07 11:26:03;;;;;;;;;;;;;;;;;;5111154;28;20018;-73
2024/04/07 11:28:29;;;;;;;;;;;;;;;;;;5110929;28;19908;-73
2024/04/07 11:30:55;;;;;;;;;;;;;;;;;;5109742;28;19915;-73
2024/04/07 11:33:20;;;;;;;;;;;;;;;;;;5111005;28;20387;-73
2024/04/07 11:35:47;;;;;;;;;;;;;;;;;;5110617;28;20325;-72
2024/04/07 11:38:13;;;;;;;;;;;;;;;;;;5109614;28;20019;-74
2024/04/07 11:40:39;;;;;;;;;;;;;;;;;;5110850;28;19959;-72
2024/04/07 11:43:05;;;;;;;;;;;;;;;;;;5110362;28;19909;-72
2024/04/07 11:45:31;;;;;;;;;;;;;;;;;;5110729;28;19934;-71
2024/04/07 11:47:59;;;;;;;;;;;;;;;;;;5109418;28;19908;-73
2024/04/07 11:50:24;;;;;;;;;;;;;;;;;;5110361;28;19908;-72
2024/04/07 11:52:50;;;;;;;;;;;;;;;;;;5110690;28;19912;-71
2024/04/07 11:55:16;;;;;;;;;;;;;;;;;;5110110;28;20007;-73
2024/04/07 11:57:42;;;;;;;;;;;;;;;;;;5110842;28;20360;-72
2024/04/07 12:00:08;;;;;;;;;;;;;;;;;;5110505;28;20283;-72
2024/04/07 12:02:34;;;;;;;;;;;;;;;;;;5110156;28;19908;-71
2024/04/07 12:05:00;;;;;;;;;;;;;;;;;;5110388;28;19911;-73
2024/04/07 12:07:26;;;;;;;;;;;;;;;;;;5100933;28;20006;-73
2024/04/07 12:09:52;;;;;;;;;;;;;;;;;;5095053;28;19916;-72
2024/04/07 12:12:18;;;;;;;;;;;;;;;;;;5096719;28;19908;-72
2024/04/07 12:14:44;;;;;;;;;;;;;;;;;;5097178;28;20056;-72
2024/04/07 12:17:10;;;;;;;;;;;;;;;;;;5096230;28;19924;-72
2024/04/07 12:19:36;;;;;;;;;;;;;;;;;;5096785;28;20334;-73
2024/04/07 12:22:02;;;;;;;;;;;;;;;;;;5096500;28;19977;-72
2024/04/07 12:24:28;;;;;;;;;;;;;;;;;;5096133;28;20006;-72
2024/04/07 12:26:53;;;;;;;;;;;;;;;;;;5096428;28;19915;-72
2024/04/07 12:29:19;;;;;;;;;;;;;;;;;;5096254;28;19908;-73
2024/04/07 12:31:46;;;;;;;;;;;;;;;;;;5096169;28;19915;-72
2024/04/07 12:34:12;;;;;;;;;;;;;;;;;;5096311;28;19923;-71
2024/04/07 12:36:39;;;;;;;;;;;;;;;;;;5096351;28;19928;-72
2024/04/07 12:39:08;;;;;;;;;;;;;;;;;;5095797;28;20000;-71
2024/04/07 12:41:34;;;;;;;;;;;;;;;;;;5096586;28;20322;-71
2024/04/07 12:44:00;;;;;;;;;;;;;;;;;;5096072;28;19908;-72
2024/04/07 12:46:26;;;;;;;;;;;;;;;;;;5095854;28;20035;-71
2024/04/07 12:48:52;;;;;;;;;;;;;;;;;;5095950;28;19912;-72
2024/04/07 12:51:17;;;;;;;;;;;;;;;;;;5095948;28;19909;-72
2024/04/07 12:53:43;;;;;;;;;;;;;;;;;;5095566;28;20327;-71
2024/04/07 12:56:14;;;;;;;;;;;;;;;;;;5095616;28;19943;-72
2024/04/07 12:58:40;;;;;;;;;;;;;;;;;;5095420;28;19908;-72
2024/04/07 13:01:06;;;;;;;;;;;;;;;;;;5095724;28;19919;-72
2024/04/07 13:03:32;;;;;;;;;;;;;;;;;;5095654;28;19991;-72
2024/04/07 13:05:59;;;;;;;;;;;;;;;;;;5093926;28;20325;-72
2024/04/07 13:08:25;;;;;;;;;;;;;;;;;;5094247;28;20002;-74
2024/04/07 13:10:52;;;;;;;;;;;;;;;;;;5094241;28;19997;-72
2024/04/07 13:13:18;;;;;;;;;;;;;;;;;;5095047;28;19908;-71
2024/04/07 13:16:56;;;;;;;;;;;;;;;;;;5111677;27;19916;-70
2024/04/07 13:19:22;;;;;;;;;;;;;;;;;;5111556;28;20447;-71
2024/04/07 13:23:54;;;;;;;;;;;;;;;;;;5051813;28;20288;-71
2024/04/07 13:26:19;;;;;;;;;;;;;;;;;;5050911;28;20008;-70
2024/04/07 13:28:45;;;;;;;;;;;;;;;;;;5050401;28;20328;-71
2024/04/07 13:31:11;;;;;;;;;;;;;;;;;;5050764;28;19909;-71
2024/04/07 13:33:37;;;;;;;;;;;;;;;;;;5051077;28;19909;-72
2024/04/07 13:36:03;;;;;;;;;;;;;;;;;;5050432;28;20019;-71
2024/04/07 13:38:29;;;;;;;;;;;;;;;;;;5051144;28;19909;-72
2024/04/07 13:40:55;;;;;;;;;;;;;;;;;;5050384;28;19909;-71
2024/04/07 13:43:21;;;;;;;;;;;;;;;;;;5050869;28;19917;-72
2024/04/07 13:46:34;;;;;;;;;;;;;;;;;;5091212;27;19938;-72
2024/04/07 13:49:00;;;;;;;;;;;;;;;;;;5090809;28;20353;-72
2024/04/07 13:51:27;;;;;;;;;;;;;;;;;;5091157;28;19933;-72
2024/04/07 13:53:53;;;;;;;;;;;;;;;;;;5091051;28;19909;-72
2024/04/07 13:56:19;;;;;;;;;;;;;;;;;;5090758;28;19954;-72
2024/04/07 13:58:46;;;;;;;;;;;;;;;;;;5090947;28;20002;-72
2024/04/07 14:02:45;;;;;;;;;;;;;;;;;;5091296;27;19921;-73
2024/04/07 14:05:10;;;;;;;;;;;;;;;;;;5091155;28;19912;-71
2024/04/07 14:08:00;;;;;;;;;;;;;;;;;;5091396;27;19938;-72
2024/04/07 14:10:26;;;;;;;;;;;;;;;;;;5090842;28;19912;-71
2024/04/07 14:12:52;;;;;;;;;;;;;;;;;;5091172;28;19914;-72
2024/04/07 14:15:18;;;;;;;;;;;;;;;;;;5089821;28;20287;-72
2024/04/07 14:17:44;;;;;;;;;;;;;;;;;;5090684;28;20352;-73
2024/04/07 14:21:15;;;;;;;;;;;;;;;;;;5092007;27;19912;-73
2024/04/07 14:23:41;;;;;;;;;;;;;;;;;;5091065;28;19934;-73
2024/04/07 14:26:07;;;;;;;;;;;;;;;;;;5089970;28;19924;-73
2024/04/07 14:28:36;;;;;;;;;;;;;;;;;;5091210;28;19912;-73
2024/04/07 14:31:02;;;;;;;;;;;;;;;;;;5089426;28;19909;-72
2024/04/07 14:33:28;;;;;;;;;;;;;;;;;;5091141;28;19958;-73
2024/04/07 14:35:54;;;;;;;;;;;;;;;;;;5091144;28;19908;-72
2024/04/07 14:38:20;;;;;;;;;;;;;;;;;;5089338;28;19916;-72
2024/04/07 14:40:46;;;;;;;;;;;;;;;;;;5090858;28;19916;-73
2024/04/07 14:43:12;;;;;;;;;;;;;;;;;;5090890;28;19958;-73
2024/04/07 14:45:38;;;;;;;;;;;;;;;;;;5090499;28;19919;-73
2024/04/07 14:48:04;;;;;;;;;;;;;;;;;;5091399;28;19909;-73
2024/04/07 14:50:30;;;;;;;;;;;;;;;;;;5090745;28;20336;-73
2024/04/07 14:52:56;;;;;;;;;;;;;;;;;;5090382;28;19923;-73
2024/04/07 14:55:22;;;;;;;;;;;;;;;;;;5091034;28;19948;-73
2024/04/07 14:57:50;;;;;;;;;;;;;;;;;;5091066;28;20367;-73
2024/04/07 15:00:16;;;;;;;;;;;;;;;;;;5090105;28;19916;-72
2024/04/07 15:02:42;;;;;;;;;;;;;;;;;;5090538;28;19909;-73
2024/04/07 15:05:08;;;;;;;;;;;;;;;;;;5090539;28;19912;-73
2024/04/07 15:07:34;;;;;;;;;;;;;;;;;;5090048;28;19914;-73
2024/04/07 15:10:00;;;;;;;;;;;;;;;;;;5090290;28;19913;-73
2024/04/07 15:12:26;;;;;;;;;;;;;;;;;;5089999;28;19915;-73
2024/04/07 15:14:52;;;;;;;;;;;;;;;;;;5090636;28;19909;-73
2024/04/07 15:17:18;;;;;;;;;;;;;;;;;;5090382;28;19908;-73
2024/04/07 15:19:45;;;;;;;;;;;;;;;;;;5097903;28;20441;-73
2024/04/07 15:22:11;;;;;;;;;;;;;;;;;;5110522;28;19931;-73
2024/04/07 15:24:37;;;;;;;;;;;;;;;;;;5110802;28;20363;-73
2024/04/07 15:27:03;;;;;;;;;;;;;;;;;;5110102;28;20340;-73
2024/04/07 15:29:29;;;;;;;;;;;;;;;;;;5110405;28;19908;-73
2024/04/07 15:31:55;;;;;;;;;;;;;;;;;;5082145;28;19915;-72
2024/04/07 15:34:21;;;;;;;;;;;;;;;;;;5096252;28;19908;-73
2024/04/07 15:36:47;;;;;;;;;;;;;;;;;;5078392;28;20288;-73
2024/04/07 15:39:13;;;;;;;;;;;;;;;;;;5078360;28;19938;-73
2024/04/07 15:41:39;;;;;;;;;;;;;;;;;;5077964;28;19912;-73
2024/04/07 15:44:05;;;;;;;;;;;;;;;;;;5096485;28;20283;-72
2024/04/07 15:46:31;;;;;;;;;;;;;;;;;;5078266;28;19953;-72
2024/04/07 15:48:57;;;;;;;;;;;;;;;;;;5096005;28;20322;-73
2024/04/07 15:51:23;;;;;;;;;;;;;;;;;;5096409;28;19935;-72
2024/04/07 15:53:50;;;;;;;;;;;;;;;;;;5096378;28;19908;-72
2024/04/07 15:56:16;;;;;;;;;;;;;;;;;;5077743;28;19915;-72
2024/04/07 15:58:42;;;;;;;;;;;;;;;;;;5096279;28;19908;-73
2024/04/07 16:01:08;;;;;;;;;;;;;;;;;;5096150;28;19922;-73
2024/04/07 16:03:34;;;;;;;;;;;;;;;;;;5077725;28;19916;-72
2024/04/07 16:07:28;;;;;;;;;;;;;;;;;;5091220;27;20277;-72
2024/04/07 16:09:54;;;;;;;;;;;;;;;;;;5089295;28;19995;-72
2024/04/07 16:12:19;;;;;;;;;;;;;;;;;;5091287;28;19931;-73
2024/04/07 16:14:45;;;;;;;;;;;;;;;;;;5091277;28;19995;-72
2024/04/07 16:17:11;;;;;;;;;;;;;;;;;;5090661;28;19909;-72
2024/04/07 16:19:37;;;;;;;;;;;;;;;;;;5090893;28;19912;-72
2024/04/07 16:22:03;;;;;;;;;;;;;;;;;;5090922;28;19915;-71
2024/04/07 16:24:29;;;;;;;;;;;;;;;;;;5090745;28;19909;-73
2024/04/07 16:26:56;;;;;;;;;;;;;;;;;;5089650;28;19916;-72
2024/04/07 16:29:25;;;;;;;;;;;;;;;;;;5091055;28;19916;-71
2024/04/07 16:31:51;;;;;;;;;;;;;;;;;;5090561;28;19916;-72
2024/04/07 16:34:17;;;;;;;;;;;;;;;;;;5091098;28;19912;-72
2024/04/07 16:36:43;;;;;;;;;;;;;;;;;;5089092;28;19941;-72
2024/04/07 16:39:11;;;;;;;;;;;;;;;;;;5091102;28;19908;-72
2024/04/07 16:41:37;;;;;;;;;;;;;;;;;;5090644;28;20409;-72
2024/04/07 16:44:03;;;;;;;;;;;;;;;;;;5090245;28;19908;-73
2024/04/07 16:46:34;;;;;;;;;;;;;;;;;;5090846;28;19923;-73
2024/04/07 16:49:00;;;;;;;;;;;;;;;;;;5089211;28;19909;-72
2024/04/07 16:51:26;;;;;;;;;;;;;;;;;;5090162;28;20281;-71
2024/04/07 16:53:52;;;;;;;;;;;;;;;;;;5090425;28;19919;-72
2024/04/07 16:56:18;;;;;;;;;;;;;;;;;;5090371;28;19971;-72
2024/04/07 16:58:44;;;;;;;;;;;;;;;;;;5090029;28;19908;-72
2024/04/07 17:04:13;;;;;;;;;;;;;;;;;;5622121;25;20231;-71
2024/04/07 17:06:40;;;;;;;;;;;;;;;;;;5622035;25;19927;-72
2024/04/07 17:11:19;;;;;;;;;;;;;;;;;;5622139;25;20374;-71
2024/04/07 17:14:26;;;;;;;;;;;;;;;;;;5622118;25;20259;-72
2024/04/07 17:16:52;;;;;;;;;;;;;;;;;;5622305;25;19933;-72
2024/04/07 17:19:18;;;;;;;;;;;;;;;;;;5621954;25;19930;-72
2024/04/07 17:22:21;;;;;;;;;;;;;;;;;;5622088;25;20289;-73
2024/04/07 17:24:49;;;;;;;;;;;;;;;;;;5622504;25;19994;-71
2024/04/07 17:28:19;;;;;;;;;;;;;;;;;;5546421;25;19928;-70
2024/04/07 17:30:45;;;;;;;;;;;;;;;;;;5546806;25;19928;-72
2024/04/07 17:35:41;;;;;;;;;;;;;;;;;;5622156;25;20359;-72
2024/04/07 17:39:56;;;;;;;;;;;;;;;;;;5621770;25;19926;-73
2024/04/07 17:42:22;;;;;;;;;;;;;;;;;;5588829;25;20266;-73
2024/04/07 17:44:48;;;;;;;;;;;;;;;;;;5588660;25;19938;-71
2024/04/07 17:47:14;;;;;;;;;;;;;;;;;;5622059;25;19933;-72
2024/04/07 17:49:41;;;;;;;;;;;;;;;;;;5622399;25;19926;-72
2024/04/07 17:53:34;;;;;;;;;;;;;;;;;;5509436;25;19927;-72
2024/04/07 17:56:00;;;;;;;;;;;;;;;;;;5509320;26;19932;-72
2024/04/07 17:58:26;;;;;;;;;;;;;;;;;;5477193;26;19937;-72
2024/04/07 18:00:51;;;;;;;;;;;;;;;;;;5509514;26;19935;-72
2024/04/07 18:03:17;;;;;;;;;;;;;;;;;;5509117;26;19928;-72